Time;durP1;ratioP1;P1;durP2;ratioP2;P2;SDS_P1;SDS_P2;PMS_P1;PMS_P2;Temp;Humidity;BMP_temperature;BMP_pressure;BME280_temperature;BME280_humidity;BME280_pressure;Samples;Min_cycle;Max_cycle;Signal;HPM_P1;HPM_P2
2023/10/16 00:02:16;;;;;;;0.30;0.30;;;5.70;99.90;;;;;;5078639;28;20562;-84
2023/10/16 00:04:43;;;;;;;0.30;0.30;;;5.70;99.90;;;;;;5056260;28;20229;-84
2023/10/16 00:07:12;;;;;;;0.30;0.30;;;5.80;99.90;;;;;;5058811;28;20639;-83
2023/10/16 00:09:39;;;;;;;0.30;0.30;;;5.80;99.90;;;;;;5052553;28;20968;-85
2023/10/16 00:12:05;;;;;;;0.30;0.30;;;5.80;99.90;;;;;;5054207;28;20495;-84
2023/10/16 00:14:30;;;;;;;0.37;0.37;;;5.70;99.90;;;;;;5037735;28;21252;-84
2023/10/16 00:16:57;;;;;;;0.30;0.30;;;5.80;99.90;;;;;;5054792;28;20190;-84
2023/10/16 00:19:25;;;;;;;0.30;0.30;;;5.70;99.90;;;;;;5067447;28;20208;-84
2023/10/16 00:21:52;;;;;;;0.30;0.30;;;5.80;99.90;;;;;;5036582;28;20536;-85
2023/10/16 00:24:18;;;;;;;0.30;0.30;;;5.80;99.90;;;;;;5064597;28;20512;-84
2023/10/16 00:26:50;;;;;;;0.30;0.30;;;5.70;99.90;;;;;;5060089;28;20509;-84
2023/10/16 00:29:17;;;;;;;0.30;0.30;;;5.70;99.90;;;;;;5045000;28;21010;-84
2023/10/16 00:31:43;;;;;;;0.30;0.30;;;5.70;99.90;;;;;;5052344;28;21282;-84
2023/10/16 00:34:09;;;;;;;0.30;0.30;;;5.60;99.90;;;;;;5054626;28;20910;-84
2023/10/16 00:36:34;;;;;;;0.30;0.30;;;5.60;99.90;;;;;;5068376;28;20447;-84
2023/10/16 00:39:12;;;;;;;0.30;0.30;;;5.50;99.90;;;;;;5063287;28;20220;-85
2023/10/16 00:41:38;;;;;;;0.30;0.30;;;5.50;99.90;;;;;;5056927;28;20186;-84
2023/10/16 00:44:04;;;;;;;0.40;0.40;;;5.60;99.90;;;;;;5065034;28;20447;-84
2023/10/16 00:46:32;;;;;;;0.30;0.30;;;5.50;99.90;;;;;;5057773;28;20437;-85
2023/10/16 00:49:00;;;;;;;0.30;0.30;;;5.60;99.90;;;;;;5055115;28;20508;-85
2023/10/16 00:51:27;;;;;;;0.30;0.30;;;5.50;99.90;;;;;;5060968;28;20486;-84
2023/10/16 00:53:53;;;;;;;0.30;0.30;;;5.50;99.90;;;;;;5070459;28;20416;-84
2023/10/16 00:56:19;;;;;;;0.30;0.30;;;5.60;99.90;;;;;;5070217;28;20435;-84
2023/10/16 00:58:48;;;;;;;0.30;0.30;;;5.50;99.90;;;;;;5061117;28;20193;-85
2023/10/16 01:01:14;;;;;;;0.30;0.30;;;5.50;99.90;;;;;;5063899;28;20222;-85
2023/10/16 01:03:41;;;;;;;0.30;0.30;;;5.40;99.90;;;;;;5057490;28;20441;-84
2023/10/16 01:06:16;;;;;;;0.30;0.30;;;5.40;99.90;;;;;;5051538;28;20801;-84
2023/10/16 01:08:49;;;;;;;0.30;0.30;;;5.40;99.90;;;;;;5063266;28;20467;-84
2023/10/16 01:11:18;;;;;;;0.30;0.30;;;5.40;99.90;;;;;;5059420;28;20905;-84
2023/10/16 01:13:47;;;;;;;0.30;0.30;;;5.40;99.90;;;;;;5051412;28;20498;-84
2023/10/16 01:16:16;;;;;;;0.30;0.30;;;5.30;99.90;;;;;;5044165;28;21049;-85
2023/10/16 01:18:46;;;;;;;0.30;0.30;;;5.30;99.90;;;;;;5055987;28;20443;-84
2023/10/16 01:21:15;;;;;;;0.30;0.30;;;5.30;99.90;;;;;;5064456;28;20459;-84
2023/10/16 01:23:46;;;;;;;0.30;0.30;;;5.30;99.90;;;;;;5070933;28;20945;-84
2023/10/16 01:26:13;;;;;;;0.30;0.30;;;5.30;99.90;;;;;;5064587;28;20464;-85
2023/10/16 01:28:39;;;;;;;0.30;0.30;;;5.20;99.90;;;;;;5050757;28;20461;-85
2023/10/16 01:31:05;;;;;;;0.30;0.30;;;5.30;99.90;;;;;;5057987;28;21034;-85
2023/10/16 01:33:30;;;;;;;0.30;0.30;;;5.20;99.90;;;;;;5045713;28;20674;-85
2023/10/16 01:35:56;;;;;;;0.30;0.30;;;5.30;99.90;;;;;;5037894;28;20235;-84
2023/10/16 01:38:24;;;;;;;0.30;0.30;;;5.30;99.90;;;;;;5069041;28;20658;-84
2023/10/16 01:41:13;;;;;;;0.30;0.30;;;5.30;99.90;;;;;;5054273;28;20964;-85
2023/10/16 01:43:40;;;;;;;0.30;0.30;;;5.20;99.90;;;;;;5055992;28;20445;-84
2023/10/16 01:46:09;;;;;;;0.30;0.30;;;5.20;99.90;;;;;;5066943;28;20438;-85
2023/10/16 01:48:42;;;;;;;0.30;0.30;;;5.30;99.90;;;;;;5056369;28;20440;-85
2023/10/16 01:51:19;;;;;;;0.30;0.30;;;5.20;99.90;;;;;;5050831;28;20441;-84
2023/10/16 01:53:47;;;;;;;0.30;0.30;;;5.20;99.90;;;;;;5049828;28;20851;-84
2023/10/16 01:56:13;;;;;;;0.30;0.30;;;5.20;99.90;;;;;;5056583;28;20440;-84
2023/10/16 01:58:44;;;;;;;0.30;0.30;;;5.20;99.90;;;;;;5051348;28;20507;-84
2023/10/16 02:01:11;;;;;;;0.30;0.30;;;5.20;99.90;;;;;;5036921;28;20548;-84
2023/10/16 02:03:37;;;;;;;0.30;0.30;;;5.10;99.90;;;;;;5061997;28;20433;-84
2023/10/16 02:06:03;;;;;;;0.30;0.30;;;5.10;99.90;;;;;;5059801;28;20432;-84
2023/10/16 02:08:29;;;;;;;0.30;0.30;;;5.00;99.90;;;;;;5033644;28;21320;-84
2023/10/16 02:10:54;;;;;;;0.40;0.40;;;5.00;99.90;;;;;;5055683;28;20469;-84
2023/10/16 02:13:20;;;;;;;0.30;0.30;;;5.10;99.90;;;;;;5059395;28;20288;-84
2023/10/16 02:15:47;;;;;;;0.40;0.40;;;5.10;99.90;;;;;;5060077;28;20577;-84
2023/10/16 02:18:20;;;;;;;0.30;0.30;;;5.20;99.90;;;;;;5049532;28;20227;-83
2023/10/16 02:20:46;;;;;;;0.30;0.30;;;5.20;99.90;;;;;;5033662;28;20506;-84
2023/10/16 02:23:12;;;;;;;0.30;0.30;;;5.20;99.90;;;;;;5050467;28;20937;-84
2023/10/16 02:25:37;;;;;;;0.30;0.30;;;5.10;99.90;;;;;;5050611;28;20704;-84
2023/10/16 02:28:07;;;;;;;0.30;0.30;;;5.10;99.90;;;;;;5055381;28;20186;-84
2023/10/16 02:30:36;;;;;;;0.30;0.30;;;5.00;99.90;;;;;;5057426;28;20245;-85
2023/10/16 02:33:18;;;;;;;0.30;0.30;;;5.10;99.90;;;;;;5065110;28;20436;-84
2023/10/16 02:35:48;;;;;;;0.30;0.30;;;5.10;99.90;;;;;;5053435;28;20428;-84
2023/10/16 02:38:23;;;;;;;0.30;0.30;;;5.10;99.90;;;;;;5057107;28;20425;-84
2023/10/16 02:40:52;;;;;;;0.30;0.30;;;5.10;99.90;;;;;;5060820;28;20443;-83
2023/10/16 02:43:20;;;;;;;0.30;0.30;;;5.00;99.90;;;;;;5050761;28;20996;-85
2023/10/16 02:45:47;;;;;;;0.30;0.30;;;5.00;99.90;;;;;;5058675;28;20478;-84
2023/10/16 02:48:16;;;;;;;0.40;0.40;;;5.10;99.90;;;;;;5049740;28;21081;-84
2023/10/16 02:50:49;;;;;;;0.30;0.30;;;5.10;99.90;;;;;;5057907;28;20495;-83
2023/10/16 02:53:22;;;;;;;0.30;0.30;;;5.00;99.90;;;;;;5067059;28;20501;-84
2023/10/16 02:55:49;;;;;;;0.30;0.30;;;5.10;99.90;;;;;;5038129;28;20443;-83
2023/10/16 02:58:15;;;;;;;0.30;0.30;;;5.10;99.90;;;;;;5061002;28;20482;-84
2023/10/16 03:00:49;;;;;;;0.33;0.33;;;5.20;99.90;;;;;;5053011;28;20848;-83
2023/10/16 03:03:17;;;;;;;0.30;0.30;;;5.20;99.90;;;;;;5060369;28;20266;-84
2023/10/16 03:05:44;;;;;;;0.30;0.30;;;5.10;99.90;;;;;;5060758;28;20527;-84
2023/10/16 03:08:10;;;;;;;0.30;0.30;;;5.20;99.90;;;;;;5036394;28;20433;-84
2023/10/16 03:10:36;;;;;;;0.30;0.30;;;5.20;99.90;;;;;;5046045;28;21376;-84
2023/10/16 03:13:06;;;;;;;0.30;0.30;;;5.10;99.90;;;;;;5055210;28;20237;-85
2023/10/16 03:15:42;;;;;;;0.33;0.33;;;5.20;99.90;;;;;;5036347;28;20420;-84
2023/10/16 03:18:16;;;;;;;0.30;0.30;;;5.20;99.90;;;;;;5057282;28;20466;-84
2023/10/16 03:20:44;;;;;;;0.30;0.30;;;5.30;99.90;;;;;;5062484;28;20963;-84
2023/10/16 03:23:12;;;;;;;0.30;0.30;;;5.30;99.90;;;;;;5072482;28;20432;-84
2023/10/16 03:28:07;;;;;;;0.30;0.30;;;5.30;99.90;;;;;;5067683;28;20440;-85
2023/10/16 03:30:33;;;;;;;0.40;0.40;;;5.30;99.90;;;;;;5067222;28;20489;-84
2023/10/16 03:32:59;;;;;;;0.30;0.30;;;5.30;99.90;;;;;;5067631;28;20440;-84
2023/10/16 03:35:29;;;;;;;0.30;0.30;;;5.30;99.90;;;;;;5068091;28;20430;-85
2023/10/16 03:37:56;;;;;;;0.30;0.30;;;5.30;99.90;;;;;;5071363;28;20181;-85
2023/10/16 03:40:25;;;;;;;0.40;0.40;;;5.30;99.90;;;;;;5075092;28;20432;-85
2023/10/16 03:42:55;;;;;;;0.30;0.30;;;5.30;99.90;;;;;;5069967;28;20958;-83
2023/10/16 03:45:21;;;;;;;0.30;0.30;;;5.40;99.90;;;;;;5067964;28;20472;-84
2023/10/16 03:48:16;;;;;;;0.30;0.30;;;5.40;99.90;;;;;;5066325;28;20425;-84
2023/10/16 03:50:42;;;;;;;0.30;0.30;;;5.40;99.90;;;;;;5052511;28;20485;-85
2023/10/16 03:53:13;;;;;;;0.30;0.30;;;5.50;99.90;;;;;;5052015;28;20709;-84
2023/10/16 03:55:47;;;;;;;0.30;0.30;;;5.50;99.90;;;;;;5056279;28;20452;-82
2023/10/16 03:58:14;;;;;;;0.40;0.40;;;5.50;99.90;;;;;;5056853;28;21007;-84
2023/10/16 04:00:53;;;;;;;0.30;0.30;;;5.60;99.90;;;;;;5059650;28;20984;-85
2023/10/16 04:03:22;;;;;;;0.30;0.30;;;5.60;99.90;;;;;;5056208;28;20440;-84
2023/10/16 04:05:49;;;;;;;0.30;0.30;;;5.50;99.90;;;;;;5053316;28;20517;-84
2023/10/16 04:08:21;;;;;;;0.30;0.30;;;5.50;99.90;;;;;;5066899;28;20453;-84
2023/10/16 04:10:47;;;;;;;0.30;0.30;;;5.50;99.90;;;;;;5040654;28;20541;-84
2023/10/16 04:13:18;;;;;;;0.30;0.30;;;5.50;99.90;;;;;;5058850;28;20436;-84
2023/10/16 04:20:55;;;;;;;0.30;0.30;;;5.60;99.90;;;;;;5057530;28;20449;-84
2023/10/16 04:23:52;;;;;;;0.30;0.30;;;5.60;99.90;;;;;;5061274;28;20440;-84
2023/10/16 04:26:29;;;;;;;0.30;0.30;;;5.60;99.90;;;;;;5062621;28;20467;-84
2023/10/16 04:36:54;;;;;;;0.30;0.30;;;5.60;99.90;;;;;;5066989;28;20432;-83
2023/10/16 04:47:47;;;;;;;0.30;0.30;;;5.40;99.90;;;;;;5058066;28;20432;-85
2023/10/16 04:50:14;;;;;;;0.30;0.30;;;5.40;99.90;;;;;;5032359;28;21074;-84
2023/10/16 05:00:56;;;;;;;0.30;0.30;;;5.30;99.90;;;;;;5064557;28;20544;-85
2023/10/16 05:03:44;;;;;;;0.30;0.30;;;5.30;99.90;;;;;;5041692;28;20451;-85
2023/10/16 05:06:15;;;;;;;0.30;0.30;;;5.20;99.90;;;;;;5050958;28;20465;-84
2023/10/16 05:14:20;;;;;;;0.30;0.30;;;5.30;99.90;;;;;;5061547;28;20431;-84
2023/10/16 06:14:12;;;;;;;0.40;0.40;;;5.40;99.90;;;;;;5052812;28;20959;-84
2023/10/16 06:16:48;;;;;;;0.30;0.30;;;5.50;99.90;;;;;;5060309;28;20473;-84
2023/10/16 06:19:14;;;;;;;0.30;0.30;;;5.50;99.90;;;;;;5035067;28;20872;-85
2023/10/16 06:21:48;;;;;;;0.30;0.30;;;5.50;99.90;;;;;;5062394;28;20431;-82
2023/10/16 06:24:33;;;;;;;0.30;0.30;;;5.50;99.90;;;;;;5066059;28;20443;-84
2023/10/16 06:27:09;;;;;;;0.30;0.30;;;5.60;99.90;;;;;;5040528;28;21407;-80
2023/10/16 06:29:35;;;;;;;0.30;0.30;;;5.60;99.90;;;;;;5044671;28;21110;-80
2023/10/16 06:32:19;;;;;;;0.30;0.30;;;5.60;99.90;;;;;;5054677;28;20441;-81
2023/10/16 06:34:48;;;;;;;0.30;0.30;;;5.70;99.90;;;;;;5043107;28;20440;-80
2023/10/16 06:37:17;;;;;;;0.30;0.30;;;5.70;99.90;;;;;;5061740;28;20483;-84
2023/10/16 06:39:46;;;;;;;0.30;0.30;;;5.80;99.90;;;;;;5061312;28;20433;-84
2023/10/16 06:42:17;;;;;;;0.30;0.30;;;5.90;99.90;;;;;;5039965;28;20808;-82
2023/10/16 06:47:37;;;;;;;0.30;0.30;;;5.90;99.90;;;;;;5074433;28;20541;-82
2023/10/16 06:52:54;;;;;;;0.30;0.30;;;6.00;99.90;;;;;;5067161;28;20557;-79
2023/10/16 06:55:23;;;;;;;0.30;0.30;;;6.10;99.90;;;;;;5058154;28;20452;-82
2023/10/16 06:57:49;;;;;;;0.20;0.20;;;6.20;99.90;;;;;;5060429;28;20440;-85
2023/10/16 07:00:23;;;;;;;0.30;0.30;;;6.20;99.90;;;;;;5068558;28;20506;-79
2023/10/16 07:02:54;;;;;;;0.30;0.30;;;6.20;99.90;;;;;;5045016;28;20525;-84
2023/10/16 07:05:22;;;;;;;0.30;0.30;;;6.10;99.90;;;;;;5063031;28;20477;-83
2023/10/16 07:07:48;;;;;;;0.30;0.30;;;6.30;99.90;;;;;;5070882;28;20420;-83
2023/10/16 07:10:14;;;;;;;0.30;0.30;;;6.40;99.90;;;;;;5041260;28;20475;-82
2023/10/16 07:13:13;;;;;;;0.30;0.30;;;6.70;99.90;;;;;;5053366;28;20417;-80
2023/10/16 07:15:31;;;;;;;0.30;0.30;;;6.80;99.90;;;;;;5067062;28;20205;-82
2023/10/16 07:18:13;;;;;;;0.20;0.20;;;7.00;99.90;;;;;;5069978;28;20819;-81
2023/10/16 07:23:24;;;;;;;0.20;0.20;;;6.80;99.90;;;;;;5067551;28;20455;-83
2023/10/16 07:25:54;;;;;;;0.30;0.30;;;6.80;99.90;;;;;;5070107;28;20462;-82
2023/10/16 07:28:21;;;;;;;0.20;0.20;;;6.90;99.90;;;;;;5071779;28;20879;-82
2023/10/16 07:30:46;;;;;;;0.30;0.30;;;7.10;99.90;;;;;;5071289;28;20566;-82
2023/10/16 07:33:16;;;;;;;0.20;0.20;;;7.30;99.90;;;;;;5070978;28;20879;-82
2023/10/16 07:35:45;;;;;;;0.20;0.20;;;7.40;99.90;;;;;;5069846;28;20186;-82
2023/10/16 07:38:19;;;;;;;0.30;0.30;;;7.60;99.90;;;;;;5069429;28;20482;-83
2023/10/16 07:41:03;;;;;;;0.20;0.20;;;7.70;99.90;;;;;;5052377;28;20977;-82
2023/10/16 07:43:34;;;;;;;0.20;0.20;;;7.80;99.90;;;;;;5070061;28;20455;-82
2023/10/16 07:49:09;;;;;;;0.20;0.20;;;7.80;99.90;;;;;;5067634;28;21947;-81
2023/10/16 07:51:35;;;;;;;0.30;0.30;;;7.90;99.90;;;;;;5037086;28;20463;-82
2023/10/16 07:54:06;;;;;;;0.20;0.20;;;7.80;99.90;;;;;;5042911;28;20432;-82
2023/10/16 07:56:33;;;;;;;0.30;0.30;;;7.80;99.90;;;;;;5061933;28;20814;-83
2023/10/16 07:59:06;;;;;;;0.20;0.20;;;7.80;99.90;;;;;;5063041;28;20468;-82
2023/10/16 08:01:41;;;;;;;0.20;0.20;;;7.90;99.90;;;;;;5068370;28;20518;-82
2023/10/16 08:04:19;;;;;;;0.20;0.20;;;7.90;99.90;;;;;;5069075;28;20431;-82
2023/10/16 08:06:45;;;;;;;0.30;0.30;;;7.90;99.90;;;;;;5047330;28;20440;-82
2023/10/16 08:12:18;;;;;;;0.20;0.20;;;7.90;99.90;;;;;;5010603;28;20455;-83
2023/10/16 08:14:45;;;;;;;0.20;0.20;;;7.80;99.90;;;;;;5064837;28;20431;-83
2023/10/16 08:17:17;;;;;;;0.20;0.20;;;7.80;99.90;;;;;;5052049;28;20505;-83
2023/10/16 08:19:44;;;;;;;0.20;0.20;;;8.00;99.90;;;;;;5071356;28;20440;-83
2023/10/16 08:22:13;;;;;;;0.20;0.20;;;8.00;99.90;;;;;;5065438;28;20433;-83
2023/10/16 08:24:57;;;;;;;0.20;0.20;;;8.10;99.90;;;;;;5070214;28;20541;-83
2023/10/16 08:27:41;;;;;;;0.20;0.20;;;8.30;99.90;;;;;;5060609;28;20486;-81
2023/10/16 08:30:19;;;;;;;0.20;0.20;;;8.60;99.90;;;;;;5040059;28;20548;-83
2023/10/16 08:35:20;;;;;;;0.20;0.20;;;8.60;99.90;;;;;;5055460;28;20520;-83
2023/10/16 08:37:56;;;;;;;0.20;0.20;;;9.20;99.90;;;;;;5060132;28;21327;-83
2023/10/16 08:40:26;;;;;;;0.20;0.20;;;9.20;99.90;;;;;;5066613;28;20424;-82
2023/10/16 08:43:03;;;;;;;0.20;0.20;;;9.40;99.90;;;;;;5067727;28;20751;-83
2023/10/16 08:45:32;;;;;;;0.20;0.20;;;9.40;99.90;;;;;;5056181;28;20447;-83
2023/10/16 08:47:58;;;;;;;0.20;0.20;;;9.10;99.90;;;;;;5055980;28;20447;-84
2023/10/16 08:50:43;;;;;;;0.20;0.20;;;9.50;99.90;;;;;;5039702;28;20476;-83
2023/10/16 08:53:30;;;;;;;0.20;0.20;;;9.70;99.90;;;;;;5043821;28;20865;-83
2023/10/16 08:56:09;;;;;;;0.20;0.20;;;9.50;99.90;;;;;;5066063;28;20453;-83
2023/10/16 08:58:44;;;;;;;0.20;0.20;;;9.70;99.90;;;;;;5042406;28;20436;-82
2023/10/16 09:01:12;;;;;;;0.20;0.20;;;9.70;99.90;;;;;;5041266;28;20479;-83
2023/10/16 09:03:50;;;;;;;0.20;0.20;;;10.20;99.90;;;;;;5045717;28;20449;-81
2023/10/16 09:06:23;;;;;;;0.10;0.10;;;10.60;99.90;;;;;;5051745;28;20944;-82
2023/10/16 09:08:54;;;;;;;0.20;0.20;;;10.70;99.90;;;;;;5056366;28;20456;-82
2023/10/16 09:11:20;;;;;;;0.10;0.10;;;11.20;99.90;;;;;;5056177;28;20837;-82
2023/10/16 09:13:51;;;;;;;0.10;0.10;;;11.00;99.90;;;;;;5056383;28;20424;-83
2023/10/16 09:16:23;;;;;;;0.20;0.20;;;10.90;99.90;;;;;;5062793;28;21228;-82
2023/10/16 09:18:51;;;;;;;0.10;0.10;;;10.70;99.90;;;;;;5057078;28;20428;-82
2023/10/16 09:21:23;;;;;;;0.20;0.20;;;10.80;99.90;;;;;;5053922;28;20448;-82
2023/10/16 09:23:52;;;;;;;0.10;0.10;;;10.80;99.90;;;;;;5064329;28;20477;-81
2023/10/16 09:26:25;;;;;;;0.10;0.10;;;11.00;99.90;;;;;;5047097;28;20565;-81
2023/10/16 09:28:53;;;;;;;0.10;0.10;;;11.10;99.90;;;;;;5036451;28;20421;-82
2023/10/16 09:31:19;;;;;;;0.10;0.10;;;11.70;99.90;;;;;;5065530;28;20432;-82
2023/10/16 09:33:48;;;;;;;0.10;0.10;;;11.60;99.90;;;;;;5059746;28;20433;-82
2023/10/16 09:36:18;;;;;;;0.10;0.10;;;11.40;99.90;;;;;;5035490;28;20447;-82
2023/10/16 09:38:46;;;;;;;0.10;0.10;;;11.60;99.90;;;;;;5040534;28;20420;-86
2023/10/16 09:44:09;;;;;;;0.10;0.10;;;12.20;99.90;;;;;;5064953;28;20434;-85
2023/10/16 09:49:14;;;;;;;0.10;0.10;;;12.80;99.90;;;;;;5063495;28;20897;-86
2023/10/16 09:51:40;;;;;;;0.10;0.10;;;13.00;99.90;;;;;;5067698;28;20439;-85
2023/10/16 09:54:09;;;;;;;0.10;0.10;;;13.30;99.90;;;;;;5062278;28;20987;-85
2023/10/16 09:56:39;;;;;;;0.10;0.10;;;13.20;99.90;;;;;;5036116;28;20455;-86
2023/10/16 09:59:22;;;;;;;0.10;0.10;;;13.50;99.90;;;;;;5039887;28;20535;-87
2023/10/16 10:01:51;;;;;;;0.10;0.10;;;13.90;99.90;;;;;;5054831;28;20469;-86
2023/10/16 10:04:24;;;;;;;0.10;0.10;;;13.70;99.90;;;;;;5040912;28;20495;-85
2023/10/16 10:06:54;;;;;;;0.10;0.10;;;14.30;99.90;;;;;;5059035;28;20441;-82
2023/10/16 10:09:40;;;;;;;0.10;0.10;;;14.50;99.90;;;;;;5064259;28;20517;-83
2023/10/16 10:12:22;;;;;;;0.10;0.10;;;13.40;99.90;;;;;;5054153;28;20870;-83
2023/10/16 10:15:04;;;;;;;0.00;0.00;;;14.10;99.90;;;;;;5055501;28;20790;-84
2023/10/16 10:17:34;;;;;;;0.00;0.00;;;14.70;99.90;;;;;;5057123;28;20533;-83
2023/10/16 10:20:08;;;;;;;0.00;0.00;;;15.20;99.90;;;;;;5065140;28;20508;-84
2023/10/16 10:22:37;;;;;;;0.00;0.00;;;14.00;99.90;;;;;;5065667;28;20497;-83
2023/10/16 10:25:14;;;;;;;0.00;0.00;;;14.90;99.90;;;;;;5066659;28;20447;-83
2023/10/16 10:27:44;;;;;;;0.00;0.00;;;14.90;99.90;;;;;;5058673;28;20475;-83
2023/10/16 10:30:43;;;;;;;0.00;0.00;;;14.20;99.90;;;;;;5059448;28;20478;-84
2023/10/16 10:33:10;;;;;;;0.00;0.00;;;14.30;99.90;;;;;;5061314;28;20432;-83
2023/10/16 10:35:39;;;;;;;0.00;0.00;;;14.40;99.90;;;;;;5069350;28;20965;-83
2023/10/16 10:38:07;;;;;;;0.00;0.00;;;14.90;99.90;;;;;;5056173;28;20799;-84
2023/10/16 10:40:35;;;;;;;0.00;0.00;;;15.30;99.90;;;;;;5060963;28;20433;-83
2023/10/16 10:43:03;;;;;;;0.00;0.00;;;14.70;99.90;;;;;;5037594;28;20836;-85
2023/10/16 10:45:36;;;;;;;0.00;0.00;;;15.00;99.90;;;;;;5066282;28;20973;-84
2023/10/16 10:48:11;;;;;;;0.00;0.00;;;15.20;99.90;;;;;;5060385;28;20501;-84
2023/10/16 10:50:39;;;;;;;0.00;0.00;;;14.80;99.90;;;;;;5058865;28;20481;-84
2023/10/16 10:53:14;;;;;;;0.00;0.00;;;14.90;99.90;;;;;;5066988;28;20447;-83
2023/10/16 10:56:07;;;;;;;0.00;0.00;;;13.60;99.90;;;;;;5059052;28;20873;-83
2023/10/16 10:58:33;;;;;;;0.00;0.00;;;13.50;99.90;;;;;;5059217;28;20440;-83
2023/10/16 11:01:16;;;;;;;0.00;0.00;;;12.80;99.90;;;;;;5050376;28;20472;-83
2023/10/16 11:03:46;;;;;;;0.00;0.00;;;13.10;99.90;;;;;;5060277;28;20183;-84
2023/10/16 11:06:18;;;;;;;0.00;0.00;;;13.60;99.90;;;;;;5053116;28;20468;-84
2023/10/16 11:08:47;;;;;;;0.10;0.10;;;13.30;99.90;;;;;;5054583;28;20450;-84
2023/10/16 11:11:14;;;;;;;0.10;0.10;;;13.10;99.90;;;;;;5038953;28;20453;-83
2023/10/16 11:13:47;;;;;;;0.10;0.10;;;12.50;99.90;;;;;;5065056;28;20431;-84
2023/10/16 11:16:14;;;;;;;0.10;0.10;;;12.20;99.90;;;;;;5061854;28;21029;-83
2023/10/16 11:18:43;;;;;;;0.10;0.10;;;12.00;99.90;;;;;;5070020;28;20920;-82
2023/10/16 11:21:09;;;;;;;0.10;0.10;;;12.00;99.90;;;;;;5069773;28;20845;-83
2023/10/16 11:23:38;;;;;;;0.10;0.10;;;12.10;99.90;;;;;;5055615;28;20949;-82
2023/10/16 11:26:13;;;;;;;0.10;0.10;;;12.30;99.90;;;;;;5059861;28;20444;-82
2023/10/16 11:28:39;;;;;;;0.10;0.10;;;12.10;99.90;;;;;;5048713;28;20825;-83
2023/10/16 11:31:09;;;;;;;0.10;0.10;;;12.00;99.90;;;;;;5064808;28;20488;-84
2023/10/16 11:33:45;;;;;;;0.10;0.10;;;12.00;99.90;;;;;;5043651;28;20440;-82
2023/10/16 11:36:20;;;;;;;0.10;0.10;;;12.90;99.90;;;;;;5068567;28;20557;-84
2023/10/16 11:38:45;;;;;;;0.10;0.10;;;12.80;99.90;;;;;;5052668;28;20523;-84
2023/10/16 11:41:19;;;;;;;0.10;0.10;;;13.50;99.90;;;;;;5060898;28;20544;-84
2023/10/16 11:43:51;;;;;;;0.10;0.10;;;12.90;99.90;;;;;;5064426;28;20182;-85
2023/10/16 11:46:28;;;;;;;0.10;0.10;;;13.20;99.90;;;;;;5068731;28;20505;-84
2023/10/16 11:48:57;;;;;;;0.10;0.10;;;14.60;99.90;;;;;;5065126;28;20444;-85
2023/10/16 11:51:26;;;;;;;0.10;0.10;;;15.00;99.90;;;;;;5070729;28;20535;-84
2023/10/16 11:54:02;;;;;;;0.10;0.10;;;15.00;99.90;;;;;;5045903;28;20527;-85
2023/10/16 11:56:34;;;;;;;0.10;0.10;;;15.20;99.90;;;;;;5050587;28;20805;-85
2023/10/16 11:59:00;;;;;;;0.10;0.10;;;15.30;99.90;;;;;;5047288;28;22029;-85
2023/10/16 12:01:27;;;;;;;0.10;0.00;;;16.90;99.90;;;;;;5049764;28;20484;-84
2023/10/16 12:03:53;;;;;;;0.10;0.00;;;17.80;99.90;;;;;;5057274;28;20449;-85
2023/10/16 12:06:19;;;;;;;0.10;0.00;;;17.30;99.90;;;;;;5072104;28;21002;-85
2023/10/16 12:08:45;;;;;;;0.10;0.00;;;15.80;99.90;;;;;;5053182;28;20296;-85
2023/10/16 12:11:14;;;;;;;0.10;0.10;;;14.70;99.90;;;;;;5061868;28;20888;-85
2023/10/16 12:13:41;;;;;;;0.10;0.10;;;13.50;99.90;;;;;;5059534;28;20186;-85
2023/10/16 12:16:07;;;;;;;0.10;0.10;;;13.20;99.90;;;;;;5065963;28;20444;-84
2023/10/16 12:18:32;;;;;;;0.10;0.10;;;12.90;99.90;;;;;;5052245;28;20504;-84
2023/10/16 12:21:04;;;;;;;0.10;0.10;;;12.70;99.90;;;;;;5083902;28;20895;-84
2023/10/16 12:23:36;;;;;;;0.10;0.10;;;12.60;99.90;;;;;;5063353;28;20217;-84
2023/10/16 12:26:04;;;;;;;0.10;0.10;;;12.40;99.90;;;;;;5051132;28;20506;-85
2023/10/16 12:28:33;;;;;;;0.10;0.10;;;12.30;99.90;;;;;;5052752;28;20444;-85
2023/10/16 12:30:59;;;;;;;0.10;0.10;;;12.30;99.90;;;;;;5067698;28;20481;-85
2023/10/16 12:33:25;;;;;;;0.10;0.10;;;12.40;99.90;;;;;;5069469;28;20440;-85
2023/10/16 12:35:54;;;;;;;0.10;0.10;;;12.30;99.90;;;;;;5065911;28;20194;-86
2023/10/16 12:38:23;;;;;;;0.10;0.10;;;12.30;99.90;;;;;;5072989;28;20435;-85
2023/10/16 12:40:53;;;;;;;0.10;0.10;;;12.30;99.90;;;;;;5060866;28;20443;-85
2023/10/16 12:43:20;;;;;;;0.10;0.10;;;12.10;99.90;;;;;;5055513;28;20499;-84
2023/10/16 12:45:45;;;;;;;0.10;0.10;;;12.10;99.90;;;;;;5060510;28;20585;-85
2023/10/16 12:48:11;;;;;;;0.10;0.10;;;11.90;99.90;;;;;;5056166;28;20962;-85
2023/10/16 12:50:37;;;;;;;0.10;0.10;;;11.90;99.90;;;;;;5066102;28;20230;-85
2023/10/16 12:53:03;;;;;;;0.10;0.10;;;12.20;99.90;;;;;;5069770;28;20262;-85
2023/10/16 12:55:29;;;;;;;0.10;0.10;;;12.30;99.90;;;;;;5033303;28;20452;-85
2023/10/16 12:57:54;;;;;;;0.10;0.10;;;12.20;99.90;;;;;;5055473;28;20212;-85
2023/10/16 13:00:22;;;;;;;0.10;0.10;;;11.90;99.90;;;;;;5035183;28;20342;-85
2023/10/16 13:02:50;;;;;;;0.10;0.10;;;11.80;99.90;;;;;;5061998;28;20240;-86
2023/10/16 13:05:24;;;;;;;0.10;0.10;;;11.70;99.90;;;;;;5038917;28;20443;-84
2023/10/16 13:07:50;;;;;;;0.10;0.10;;;11.70;99.90;;;;;;5038859;28;20429;-85
2023/10/16 13:10:26;;;;;;;0.10;0.10;;;11.40;99.90;;;;;;5057393;28;20477;-83
2023/10/16 13:12:51;;;;;;;0.10;0.10;;;11.70;99.90;;;;;;5060840;28;20416;-82
2023/10/16 13:15:31;;;;;;;0.10;0.10;;;13.10;99.90;;;;;;5063081;28;20446;-85
2023/10/16 13:17:58;;;;;;;0.10;0.10;;;14.30;99.90;;;;;;5045722;28;20201;-84
2023/10/16 13:20:32;;;;;;;0.10;0.10;;;14.40;99.90;;;;;;5062805;28;20953;-85
2023/10/16 13:22:58;;;;;;;0.10;0.10;;;14.30;99.90;;;;;;5060901;28;20436;-85
2023/10/16 13:25:25;;;;;;;0.10;0.10;;;14.00;99.90;;;;;;5071956;28;20444;-85
2023/10/16 13:27:52;;;;;;;0.10;0.10;;;14.00;99.90;;;;;;5040962;28;20178;-85
2023/10/16 13:30:22;;;;;;;0.10;0.10;;;13.40;99.90;;;;;;5036431;28;20480;-84
2023/10/16 13:32:47;;;;;;;0.10;0.10;;;12.70;99.90;;;;;;5067090;28;20424;-85
2023/10/16 13:35:16;;;;;;;0.10;0.10;;;12.20;99.90;;;;;;5067423;28;20659;-85
2023/10/16 13:37:45;;;;;;;0.10;0.10;;;12.10;99.90;;;;;;5059952;28;20424;-86
2023/10/16 13:40:21;;;;;;;0.10;0.10;;;12.00;99.90;;;;;;5063487;28;20492;-86
2023/10/16 13:42:51;;;;;;;0.10;0.10;;;12.10;99.90;;;;;;5052351;28;20475;-86
2023/10/16 13:45:18;;;;;;;0.10;0.10;;;12.00;99.90;;;;;;5043067;28;20445;-82
2023/10/16 13:47:44;;;;;;;0.10;0.10;;;11.90;99.90;;;;;;5063777;28;20433;-83
2023/10/16 13:50:12;;;;;;;0.10;0.10;;;11.70;99.90;;;;;;5062045;28;20842;-83
2023/10/16 13:52:43;;;;;;;0.20;0.20;;;11.90;99.90;;;;;;5066594;28;20440;-83
2023/10/16 13:55:13;;;;;;;0.10;0.10;;;12.00;99.90;;;;;;5066331;28;20448;-83
2023/10/16 13:57:43;;;;;;;0.10;0.10;;;12.00;99.90;;;;;;5042369;28;20437;-82
2023/10/16 14:00:28;;;;;;;0.10;0.10;;;11.80;99.90;;;;;;5058620;28;20445;-80
2023/10/16 14:02:59;;;;;;;0.10;0.10;;;11.60;99.90;;;;;;5042126;28;20511;-82
2023/10/16 14:05:28;;;;;;;0.10;0.10;;;11.70;99.90;;;;;;5058764;28;20484;-82
2023/10/16 14:07:54;;;;;;;0.20;0.20;;;11.60;99.90;;;;;;5061807;28;21072;-84
2023/10/16 14:10:21;;;;;;;;;;;11.50;99.90;;;;;;5050111;28;20311;-84
2023/10/16 14:12:53;;;;;;;0.20;0.20;;;11.70;99.90;;;;;;5055708;28;20529;-83
2023/10/16 14:15:19;;;;;;;0.10;0.10;;;11.60;99.90;;;;;;5055227;28;20682;-85
2023/10/16 14:17:47;;;;;;;0.10;0.10;;;11.60;99.90;;;;;;5049873;28;20902;-85
2023/10/16 14:20:34;;;;;;;;;;;11.50;99.90;;;;;;5047495;28;20779;-85
2023/10/16 14:22:59;;;;;;;;;;;11.30;99.90;;;;;;5052040;28;20016;-84
2023/10/16 14:25:32;;;;;;;;;;;11.20;99.90;;;;;;5070054;28;20403;-83
2023/10/16 14:27:58;;;;;;;;;;;11.20;99.90;;;;;;5064106;28;19962;-83
2023/10/16 14:30:26;;;;;;;;;;;11.20;99.90;;;;;;5058924;28;19927;-84
2023/10/16 14:32:51;;;;;;;;;;;11.10;99.90;;;;;;5041709;28;19912;-84
2023/10/16 14:35:17;;;;;;;;;;;11.20;99.90;;;;;;5034748;28;19912;-84
2023/10/16 14:37:43;;;;;;;;;;;11.30;99.90;;;;;;5041887;28;20289;-84
2023/10/16 14:40:09;;;;;;;;;;;11.60;99.90;;;;;;5054741;28;19919;-83
2023/10/16 14:42:34;;;;;;;;;;;11.50;99.90;;;;;;5054864;28;19912;-83
2023/10/16 14:45:01;;;;;;;;;;;11.30;99.90;;;;;;5062297;28;20291;-83
2023/10/16 14:47:27;;;;;;;;;;;11.20;99.90;;;;;;5054419;28;19913;-84
2023/10/16 14:49:54;;;;;;;;;;;11.30;99.90;;;;;;5061088;28;19923;-84
2023/10/16 14:52:20;;;;;;;;;;;11.30;99.90;;;;;;5044580;28;19959;-82
2023/10/16 14:54:45;;;;;;;;;;;11.30;99.90;;;;;;5071653;28;20601;-82
2023/10/16 14:57:11;;;;;;;;;;;11.20;99.90;;;;;;5057466;28;19915;-79
2023/10/16 14:59:37;;;;;;;;;;;11.10;99.90;;;;;;5055914;28;20369;-80
2023/10/16 15:02:02;;;;;;;;;;;11.10;99.90;;;;;;5065435;28;19928;-81
2023/10/16 15:04:28;;;;;;;;;;;11.00;99.90;;;;;;5064998;28;20415;-81
2023/10/16 15:07:01;;;;;;;;;;;10.80;99.90;;;;;;5060741;28;20305;-79
2023/10/16 15:09:26;;;;;;;;;;;10.70;99.90;;;;;;5063723;28;19962;-79
2023/10/16 15:11:54;;;;;;;;;;;10.70;99.90;;;;;;5073394;28;20368;-80